Time;durP1;ratioP1;P1;durP2;ratioP2;P2;SDS_P1;SDS_P2;PMS_P1;PMS_P2;Temp;Humidity;BMP_temperature;BMP_pressure;BME280_temperature;BME280_humidity;BME280_pressure;Samples;Min_cycle;Max_cycle;Signal;HPM_P1;HPM_P2
2021/05/29 00:00:15;;;;;;;1.83;1.27;;;;;;;;;;4986789;28;20128;-55
2021/05/29 00:02:41;;;;;;;2.30;1.52;;;;;;;;;;5003195;28;20508;-55
2021/05/29 00:05:07;;;;;;;1.95;1.30;;;;;;;;;;4984738;28;20042;-55
2021/05/29 00:07:34;;;;;;;2.47;1.48;;;;;;;;;;4984154;28;20030;-55
2021/05/29 00:09:59;;;;;;;1.90;1.80;;;;;;;;;;4986283;28;20046;-56
2021/05/29 00:12:25;;;;;;;2.17;1.70;;;;;;;;;;4988639;28;20873;-55
2021/05/29 00:14:51;;;;;;;1.70;1.60;;;;;;;;;;4986587;28;20133;-55
2021/05/29 00:17:18;;;;;;;1.40;1.30;;;;;;;;;;4986723;28;20068;-55
2021/05/29 00:19:44;;;;;;;2.13;1.60;;;;;;;;;;5019444;28;20033;-55
2021/05/29 00:22:09;;;;;;;3.08;2.25;;;;;;;;;;5002932;28;20492;-55
2021/05/29 00:24:35;;;;;;;6.15;4.07;;;;;;;;;;4985934;28;20030;-55
2021/05/29 00:27:00;;;;;;;3.28;2.97;;;;;;;;;;4986739;28;20038;-55
2021/05/29 00:29:26;;;;;;;3.08;2.65;;;;;;;;;;5017226;28;20023;-55
2021/05/29 00:31:51;;;;;;;5.18;2.80;;;;;;;;;;4987149;28;20026;-55
2021/05/29 00:34:17;;;;;;;3.60;2.78;;;;;;;;;;4986532;28;20030;-55
2021/05/29 00:36:43;;;;;;;3.60;2.40;;;;;;;;;;4984898;28;20104;-55
2021/05/29 00:39:08;;;;;;;2.08;1.88;;;;;;;;;;5018107;28;20030;-55
2021/05/29 00:41:34;;;;;;;2.78;1.73;;;;;;;;;;4986358;28;20473;-56
2021/05/29 00:44:00;;;;;;;2.10;1.70;;;;;;;;;;4986446;28;20026;-56
2021/05/29 00:46:26;;;;;;;2.10;1.75;;;;;;;;;;4986026;28;20130;-54
2021/05/29 00:48:51;;;;;;;4.05;2.03;;;;;;;;;;4985413;28;20106;-56
2021/05/29 00:51:17;;;;;;;1.77;1.60;;;;;;;;;;5015336;28;20026;-55
2021/05/29 00:53:44;;;;;;;2.85;2.00;;;;;;;;;;4987529;28;20026;-55
2021/05/29 00:56:10;;;;;;;4.00;1.77;;;;;;;;;;4988935;28;20026;-55
2021/05/29 00:58:36;;;;;;;2.08;1.88;;;;;;;;;;5015366;28;20087;-55
2021/05/29 01:01:02;;;;;;;2.90;1.77;;;;;;;;;;4999409;28;20026;-55
2021/05/29 01:03:29;;;;;;;2.30;1.92;;;;;;;;;;4984685;28;20160;-55
2021/05/29 01:05:55;;;;;;;3.13;1.80;;;;;;;;;;4986772;28;20033;-55
2021/05/29 01:08:26;;;;;;;1.90;1.77;;;;;;;;;;4985128;28;20493;-56
2021/05/29 01:10:52;;;;;;;2.80;1.95;;;;;;;;;;4981023;28;20093;-55
2021/05/29 01:13:21;;;;;;;4.03;2.20;;;;;;;;;;4989446;28;20512;-55
2021/05/29 01:15:48;;;;;;;2.67;1.70;;;;;;;;;;4985954;28;20030;-55
2021/05/29 01:18:17;;;;;;;2.45;1.92;;;;;;;;;;4985394;28;20335;-55
2021/05/29 01:20:45;;;;;;;2.50;1.80;;;;;;;;;;4991080;28;20032;-55
2021/05/29 01:23:12;;;;;;;2.33;1.60;;;;;;;;;;5002958;28;20034;-55
2021/05/29 01:25:41;;;;;;;3.78;1.60;;;;;;;;;;4968197;28;20042;-56
2021/05/29 01:28:26;;;;;;;2.65;1.67;;;;;;;;;;4980562;28;20038;-55
2021/05/29 01:31:06;;;;;;;2.88;1.80;;;;;;;;;;4985306;28;20113;-55
2021/05/29 01:33:34;;;;;;;3.17;1.92;;;;;;;;;;5018553;28;20038;-55
2021/05/29 01:36:06;;;;;;;2.15;1.67;;;;;;;;;;4981483;28;20026;-55
2021/05/29 01:38:32;;;;;;;1.63;1.52;;;;;;;;;;5001018;28;20037;-55
2021/05/29 01:41:01;;;;;;;1.77;1.67;;;;;;;;;;4986160;28;20492;-55
2021/05/29 01:43:27;;;;;;;;;;;;;;;;;;4971834;28;20575;-55
2021/05/29 01:45:53;;;;;;;2.70;1.52;;;;;;;;;;5001262;28;20143;-55
2021/05/29 01:48:20;;;;;;;1.98;1.65;;;;;;;;;;5017475;28;20030;-55
2021/05/29 01:50:46;;;;;;;1.80;1.65;;;;;;;;;;4984185;28;20031;-55
2021/05/29 01:53:14;;;;;;;3.10;1.80;;;;;;;;;;5016600;28;20048;-56
2021/05/29 01:55:43;;;;;;;2.55;1.98;;;;;;;;;;5017391;28;20026;-56
2021/05/29 01:58:09;;;;;;;2.55;1.90;;;;;;;;;;4983137;28;20100;-55
2021/05/29 02:00:35;;;;;;;2.40;1.77;;;;;;;;;;4983420;28;20030;-55
2021/05/29 02:03:01;;;;;;;2.58;1.95;;;;;;;;;;4988347;28;20416;-55
2021/05/29 02:05:29;;;;;;;2.15;1.85;;;;;;;;;;4985782;28;20034;-56
2021/05/29 02:07:58;;;;;;;2.30;2.00;;;;;;;;;;4981880;28;20038;-56
2021/05/29 02:10:26;;;;;;;2.35;2.10;;;;;;;;;;4985016;28;20448;-55
2021/05/29 02:12:54;;;;;;;2.80;2.22;;;;;;;;;;4984491;28;20034;-56
2021/05/29 02:15:23;;;;;;;2.92;2.05;;;;;;;;;;4984456;28;20034;-55
2021/05/29 02:17:53;;;;;;;2.72;2.13;;;;;;;;;;4984890;28;20050;-55
2021/05/29 02:20:42;;;;;;;2.10;1.90;;;;;;;;;;4986767;28;20026;-56
2021/05/29 02:23:09;;;;;;;2.63;2.27;;;;;;;;;;4985036;28;20034;-55
2021/05/29 02:25:37;;;;;;;3.80;2.47;;;;;;;;;;4970803;28;20125;-56
2021/05/29 02:28:03;;;;;;;3.40;2.20;;;;;;;;;;4985428;28;20026;-55
2021/05/29 02:30:30;;;;;;;2.70;2.13;;;;;;;;;;4983361;28;20041;-56
2021/05/29 02:32:55;;;;;;;4.43;2.17;;;;;;;;;;4981620;28;20030;-55
2021/05/29 02:35:21;;;;;;;2.10;1.73;;;;;;;;;;4985458;28;20543;-55
2021/05/29 02:37:47;;;;;;;2.28;2.08;;;;;;;;;;5019630;28;20048;-56
2021/05/29 02:40:13;;;;;;;2.05;1.80;;;;;;;;;;4989616;28;20034;-55
2021/05/29 02:42:39;;;;;;;3.22;1.92;;;;;;;;;;4987967;28;20038;-55
2021/05/29 02:45:05;;;;;;;2.55;1.83;;;;;;;;;;4987287;28;20030;-55
2021/05/29 02:47:31;;;;;;;3.08;2.00;;;;;;;;;;4985870;28;20060;-56
2021/05/29 02:49:56;;;;;;;2.72;2.10;;;;;;;;;;4990975;28;20048;-55
2021/05/29 02:52:22;;;;;;;3.08;2.20;;;;;;;;;;4987988;28;20058;-55
2021/05/29 02:54:48;;;;;;;2.25;2.00;;;;;;;;;;4984616;28;20030;-55
2021/05/29 02:57:14;;;;;;;2.58;2.03;;;;;;;;;;4986782;28;20031;-55
2021/05/29 02:59:40;;;;;;;2.80;1.92;;;;;;;;;;4988138;28;20026;-55
2021/05/29 03:02:07;;;;;;;2.28;2.05;;;;;;;;;;4974620;28;20030;-56
2021/05/29 03:04:34;;;;;;;3.10;2.20;;;;;;;;;;4986638;28;20030;-56
2021/05/29 03:07:00;;;;;;;2.60;2.38;;;;;;;;;;5002957;28;20030;-55
2021/05/29 03:09:26;;;;;;;3.95;2.45;;;;;;;;;;4989152;28;20081;-55
2021/05/29 03:11:52;;;;;;;3.55;1.98;;;;;;;;;;4992952;28;20028;-55
2021/05/29 03:14:17;;;;;;;3.33;2.38;;;;;;;;;;5019095;28;20049;-55
2021/05/29 03:16:43;;;;;;;7.97;4.00;;;;;;;;;;4988489;28;20030;-55
2021/05/29 03:19:09;;;;;;;3.80;2.95;;;;;;;;;;4989950;28;20031;-55
2021/05/29 03:21:34;;;;;;;2.95;1.90;;;;;;;;;;4988583;28;20121;-56
2021/05/29 03:24:00;;;;;;;4.25;2.30;;;;;;;;;;4988774;28;20058;-55
2021/05/29 03:26:26;;;;;;;2.72;2.08;;;;;;;;;;4986526;28;20029;-55
2021/05/29 03:28:54;;;;;;;2.60;1.92;;;;;;;;;;4987381;28;20114;-55
2021/05/29 03:31:20;;;;;;;3.13;1.90;;;;;;;;;;4989049;28;20042;-56
2021/05/29 03:33:46;;;;;;;2.67;1.90;;;;;;;;;;4973356;28;20057;-55
2021/05/29 03:36:12;;;;;;;2.55;2.13;;;;;;;;;;4987628;28;20061;-55
2021/05/29 03:38:37;;;;;;;2.53;1.95;;;;;;;;;;4988176;28;20089;-55
2021/05/29 03:41:03;;;;;;;4.00;2.28;;;;;;;;;;4990703;28;20057;-55
2021/05/29 03:43:29;;;;;;;2.90;2.47;;;;;;;;;;4987807;28;20105;-55
2021/05/29 03:45:55;;;;;;;3.38;2.45;;;;;;;;;;4988229;28;20113;-55
2021/05/29 03:48:20;;;;;;;2.35;1.60;;;;;;;;;;4990872;28;20026;-55
2021/05/29 03:50:46;;;;;;;2.67;1.90;;;;;;;;;;4987092;28;20085;-55
2021/05/29 03:53:12;;;;;;;2.08;1.88;;;;;;;;;;4983783;28;20062;-55
2021/05/29 03:55:38;;;;;;;3.17;1.80;;;;;;;;;;4986741;28;20098;-57
2021/05/29 03:58:04;;;;;;;2.42;1.60;;;;;;;;;;5002592;28;20030;-55
2021/05/29 04:00:31;;;;;;;3.33;2.10;;;;;;;;;;4989125;28;20038;-57
2021/05/29 04:02:57;;;;;;;2.50;2.25;;;;;;;;;;4986838;28;20057;-56
2021/05/29 04:05:23;;;;;;;3.67;2.00;;;;;;;;;;4987492;28;20069;-57
2021/05/29 04:07:50;;;;;;;3.88;2.20;;;;;;;;;;4983183;28;20049;-56
2021/05/29 04:10:26;;;;;;;2.20;2.00;;;;;;;;;;4989374;28;20041;-55
2021/05/29 04:12:52;;;;;;;3.35;1.80;;;;;;;;;;4985817;28;20481;-56
2021/05/29 04:15:19;;;;;;;2.33;1.70;;;;;;;;;;4985268;28;20124;-56
2021/05/29 04:17:45;;;;;;;2.50;2.30;;;;;;;;;;4983919;28;20137;-56
2021/05/29 04:20:13;;;;;;;2.22;2.03;;;;;;;;;;4984757;28;20038;-56
2021/05/29 04:22:39;;;;;;;1.70;1.60;;;;;;;;;;4989134;28;20034;-56
2021/05/29 04:25:07;;;;;;;2.00;1.80;;;;;;;;;;4983665;28;20038;-56
2021/05/29 04:27:32;;;;;;;2.75;1.95;;;;;;;;;;4978511;28;20034;-56
2021/05/29 04:29:59;;;;;;;3.28;2.63;;;;;;;;;;4985510;28;20073;-56
2021/05/29 04:32:24;;;;;;;2.40;2.20;;;;;;;;;;4988621;28;20041;-56
2021/05/29 04:34:50;;;;;;;2.65;2.17;;;;;;;;;;4987043;28;20018;-56
2021/05/29 04:37:17;;;;;;;3.40;2.53;;;;;;;;;;4972104;28;20030;-55
2021/05/29 04:39:45;;;;;;;3.35;2.38;;;;;;;;;;4986562;28;20030;-55
2021/05/29 04:42:12;;;;;;;3.20;2.90;;;;;;;;;;4997647;28;20023;-56
2021/05/29 04:44:37;;;;;;;3.60;2.75;;;;;;;;;;4986628;28;20037;-56
2021/05/29 04:47:04;;;;;;;3.38;3.08;;;;;;;;;;4985799;28;20033;-56
2021/05/29 04:49:30;;;;;;;2.47;2.28;;;;;;;;;;4982848;28;20454;-55
2021/05/29 04:51:57;;;;;;;3.20;2.33;;;;;;;;;;4988598;28;20034;-56
2021/05/29 04:54:23;;;;;;;2.92;2.30;;;;;;;;;;4986908;28;20515;-56
2021/05/29 04:56:48;;;;;;;2.40;2.20;;;;;;;;;;4982252;28;20407;-55
2021/05/29 04:59:14;;;;;;;3.00;2.35;;;;;;;;;;4981140;28;20336;-55
2021/05/29 05:01:40;;;;;;;3.75;2.28;;;;;;;;;;4984700;28;20121;-56
2021/05/29 05:04:06;;;;;;;2.53;2.22;;;;;;;;;;5016713;28;20406;-55
2021/05/29 05:06:32;;;;;;;3.67;2.78;;;;;;;;;;4984712;28;20439;-55
2021/05/29 05:08:58;;;;;;;2.40;2.20;;;;;;;;;;4987078;28;20093;-58
2021/05/29 05:11:24;;;;;;;2.60;2.33;;;;;;;;;;4983477;28;20022;-59
2021/05/29 05:13:50;;;;;;;2.55;2.20;;;;;;;;;;4966705;28;20132;-59
2021/05/29 05:16:16;;;;;;;4.75;2.30;;;;;;;;;;4985735;28;20138;-60
2021/05/29 05:18:41;;;;;;;3.40;2.10;;;;;;;;;;4966411;28;20273;-58
2021/05/29 05:21:07;;;;;;;2.72;2.50;;;;;;;;;;5002397;28;20037;-59
2021/05/29 05:23:34;;;;;;;3.28;2.10;;;;;;;;;;4985346;28;20034;-58
2021/05/29 05:26:00;;;;;;;3.20;2.28;;;;;;;;;;4983336;28;20034;-58
2021/05/29 05:28:27;;;;;;;2.67;2.40;;;;;;;;;;4986475;28;20558;-58
2021/05/29 05:30:58;;;;;;;3.45;2.60;;;;;;;;;;4984866;28;20560;-58
2021/05/29 05:33:25;;;;;;;4.65;2.53;;;;;;;;;;4984794;28;20035;-58
2021/05/29 05:35:53;;;;;;;3.75;2.40;;;;;;;;;;4980220;28;20030;-58
2021/05/29 05:38:20;;;;;;;3.65;2.78;;;;;;;;;;4984150;28;20114;-58
2021/05/29 05:40:46;;;;;;;3.60;2.80;;;;;;;;;;5014733;28;20528;-58
2021/05/29 05:43:12;;;;;;;4.28;2.80;;;;;;;;;;4986312;28;20477;-58
2021/05/29 05:45:39;;;;;;;4.70;2.67;;;;;;;;;;4984283;28;20045;-58
2021/05/29 05:48:05;;;;;;;7.75;3.33;;;;;;;;;;4981031;28;20022;-58
2021/05/29 05:50:31;;;;;;;6.05;3.42;;;;;;;;;;4986691;28;20042;-58
2021/05/29 05:52:57;;;;;;;4.65;3.65;;;;;;;;;;5003047;28;20466;-59
2021/05/29 05:55:23;;;;;;;4.82;3.50;;;;;;;;;;4986250;28;20122;-58
2021/05/29 05:57:49;;;;;;;5.88;3.25;;;;;;;;;;4986097;28;20057;-58
2021/05/29 06:00:17;;;;;;;3.88;3.25;;;;;;;;;;5017826;28;20509;-58
2021/05/29 06:02:43;;;;;;;4.25;3.25;;;;;;;;;;4980600;28;20036;-58
2021/05/29 06:05:10;;;;;;;3.80;2.97;;;;;;;;;;4983855;28;20585;-58
2021/05/29 06:07:36;;;;;;;4.25;3.38;;;;;;;;;;4979506;28;20084;-58
2021/05/29 06:10:05;;;;;;;4.28;3.08;;;;;;;;;;4986468;28;20037;-58
2021/05/29 06:12:33;;;;;;;3.72;3.10;;;;;;;;;;4982667;28;20034;-58
2021/05/29 06:20:27;;;;;;;3.58;2.97;;;;;;;;;;4984578;28;20030;-58
2021/05/29 06:22:52;;;;;;;4.45;3.08;;;;;;;;;;4984103;28;20026;-60
2021/05/29 06:25:18;;;;;;;4.88;3.03;;;;;;;;;;4969508;28;20485;-59
2021/05/29 06:27:44;;;;;;;4.75;3.25;;;;;;;;;;4984570;28;20473;-59
2021/05/29 06:30:10;;;;;;;6.28;3.92;;;;;;;;;;4984511;28;20513;-59
2021/05/29 06:32:39;;;;;;;4.32;3.25;;;;;;;;;;5018581;28;20034;-59
2021/05/29 06:35:07;;;;;;;4.28;3.22;;;;;;;;;;5001078;28;20113;-59
2021/05/29 06:37:34;;;;;;;5.15;3.33;;;;;;;;;;4984810;28;20136;-58
2021/05/29 06:39:59;;;;;;;3.50;3.20;;;;;;;;;;4984162;28;20034;-59
2021/05/29 06:42:28;;;;;;;5.38;3.40;;;;;;;;;;4987425;28;20086;-59
2021/05/29 06:44:56;;;;;;;5.28;2.95;;;;;;;;;;4969348;28;20030;-59
2021/05/29 06:47:22;;;;;;;5.40;3.15;;;;;;;;;;4984734;28;20022;-59
2021/05/29 06:49:47;;;;;;;4.20;2.90;;;;;;;;;;5001294;28;20507;-59
2021/05/29 06:52:16;;;;;;;6.00;2.67;;;;;;;;;;4981196;28;20104;-59
2021/05/29 07:00:08;;;;;;;4.00;2.80;;;;;;;;;;4984639;28;20089;-58
2021/05/29 07:02:34;;;;;;;3.22;2.78;;;;;;;;;;5017299;28;20124;-58
2021/05/29 07:05:00;;;;;;;3.53;2.53;;;;;;;;;;4984585;28;20460;-58
2021/05/29 07:07:26;;;;;;;2.72;2.22;;;;;;;;;;4983145;28;20026;-58
2021/05/29 07:09:52;;;;;;;3.35;2.60;;;;;;;;;;4984252;28;20029;-58
2021/05/29 07:12:17;;;;;;;3.10;2.33;;;;;;;;;;4982069;28;20340;-58
2021/05/29 07:14:43;;;;;;;4.15;2.30;;;;;;;;;;4986165;28;20284;-59
2021/05/29 07:17:09;;;;;;;3.25;2.35;;;;;;;;;;4982332;28;20034;-58
2021/05/29 07:19:35;;;;;;;4.30;2.40;;;;;;;;;;4983283;28;20383;-58
2021/05/29 07:22:01;;;;;;;3.25;2.38;;;;;;;;;;4988928;28;20360;-58
2021/05/29 07:24:27;;;;;;;2.88;2.35;;;;;;;;;;4988752;28;20493;-58
2021/05/29 07:26:53;;;;;;;4.20;2.25;;;;;;;;;;4985259;28;20040;-58
2021/05/29 07:29:19;;;;;;;2.67;2.20;;;;;;;;;;4981974;28;20453;-58
2021/05/29 07:31:45;;;;;;;2.22;2.03;;;;;;;;;;4986822;28;20034;-58
2021/05/29 07:34:12;;;;;;;2.40;2.00;;;;;;;;;;4988706;28;20373;-58
2021/05/29 07:36:38;;;;;;;1.83;1.63;;;;;;;;;;4986197;28;20038;-58
2021/05/29 07:39:05;;;;;;;2.92;1.92;;;;;;;;;;4984728;28;20014;-58
2021/05/29 07:41:33;;;;;;;2.88;1.95;;;;;;;;;;5019124;28;20125;-58
2021/05/29 07:43:59;;;;;;;3.70;2.45;;;;;;;;;;4988637;28;20477;-56
2021/05/29 07:46:25;;;;;;;3.80;1.98;;;;;;;;;;4984616;28;20030;-57
2021/05/29 07:48:51;;;;;;;3.58;2.10;;;;;;;;;;4985353;28;20117;-58
2021/05/29 07:51:17;;;;;;;4.78;2.13;;;;;;;;;;4996011;28;20117;-58
2021/05/29 07:53:43;;;;;;;2.95;1.85;;;;;;;;;;4985317;28;20038;-57
2021/05/29 07:56:14;;;;;;;4.50;1.80;;;;;;;;;;4983937;28;20030;-57
2021/05/29 07:58:41;;;;;;;4.10;1.80;;;;;;;;;;4987224;28;20416;-57
2021/05/29 08:01:09;;;;;;;6.55;1.80;;;;;;;;;;4984903;28;20032;-56
2021/05/29 08:03:35;;;;;;;2.40;2.13;;;;;;;;;;4987221;28;20031;-58
2021/05/29 08:06:05;;;;;;;2.03;1.73;;;;;;;;;;5002017;28;20244;-59
2021/05/29 08:08:31;;;;;;;1.90;1.70;;;;;;;;;;4987836;28;20485;-59
2021/05/29 08:10:59;;;;;;;3.10;1.90;;;;;;;;;;4987111;28;20473;-59
2021/05/29 08:13:28;;;;;;;3.13;2.08;;;;;;;;;;4986354;28;20557;-59
2021/05/29 08:15:54;;;;;;;2.63;1.95;;;;;;;;;;4986045;28;20034;-59
2021/05/29 08:18:20;;;;;;;2.95;1.90;;;;;;;;;;4986464;28;20038;-59
2021/05/29 08:20:48;;;;;;;2.50;1.90;;;;;;;;;;4986336;28;20026;-59
2021/05/29 08:23:14;;;;;;;2.75;1.80;;;;;;;;;;4985452;28;20117;-59
2021/05/29 08:25:41;;;;;;;3.83;2.13;;;;;;;;;;4987168;28;20490;-59
2021/05/29 08:28:07;;;;;;;8.50;2.55;;;;;;;;;;4988204;28;20497;-59
2021/05/29 08:30:33;;;;;;;8.75;2.50;;;;;;;;;;4988362;28;20541;-59
2021/05/29 08:32:59;;;;;;;3.15;2.10;;;;;;;;;;4987459;28;20494;-59
2021/05/29 08:35:25;;;;;;;2.35;1.67;;;;;;;;;;4986808;28;20040;-59
2021/05/29 08:37:51;;;;;;;3.50;1.90;;;;;;;;;;4981548;28;20765;-59
2021/05/29 08:40:20;;;;;;;2.70;1.90;;;;;;;;;;4981294;28;20389;-59
2021/05/29 08:42:46;;;;;;;2.65;1.67;;;;;;;;;;4984842;28;20477;-59
2021/05/29 08:45:17;;;;;;;2.00;1.77;;;;;;;;;;4983100;28;20038;-59
2021/05/29 08:47:45;;;;;;;2.45;2.25;;;;;;;;;;5015789;28;20529;-59
2021/05/29 08:50:14;;;;;;;2.72;1.77;;;;;;;;;;4984875;28;20496;-59
2021/05/29 08:52:40;;;;;;;2.53;1.77;;;;;;;;;;4987418;28;20202;-59
2021/05/29 08:55:12;;;;;;;1.90;1.60;;;;;;;;;;4983625;28;20030;-59
2021/05/29 08:57:38;;;;;;;2.85;1.88;;;;;;;;;;4981806;28;20045;-59
2021/05/29 09:00:07;;;;;;;2.13;1.60;;;;;;;;;;4985342;28;20022;-59
2021/05/29 09:02:33;;;;;;;2.05;1.50;;;;;;;;;;4985243;28;20501;-59
2021/05/29 09:05:08;;;;;;;1.60;1.50;;;;;;;;;;4985947;28;20030;-59
2021/05/29 09:07:34;;;;;;;1.70;1.50;;;;;;;;;;4986408;28;20042;-59
2021/05/29 09:10:20;;;;;;;2.20;2.00;;;;;;;;;;4985605;28;20035;-59
2021/05/29 09:13:06;;;;;;;2.50;1.95;;;;;;;;;;5020321;28;20030;-59
2021/05/29 09:16:19;;;;;;;2.65;2.45;;;;;;;;;;5016075;28;20478;-59
2021/05/29 09:18:48;;;;;;;2.30;2.10;;;;;;;;;;4998130;28;20404;-59
2021/05/29 09:21:34;;;;;;;2.92;1.92;;;;;;;;;;5014024;28;20041;-59
2021/05/29 09:24:15;;;;;;;2.45;2.25;;;;;;;;;;4985335;28;20168;-59
2021/05/29 09:26:50;;;;;;;2.50;2.25;;;;;;;;;;4985618;28;20034;-59
2021/05/29 09:29:30;;;;;;;2.65;2.38;;;;;;;;;;4981766;28;20034;-58
2021/05/29 09:31:56;;;;;;;5.40;2.85;;;;;;;;;;4986966;28;20039;-57
2021/05/29 09:34:43;;;;;;;2.67;2.40;;;;;;;;;;4983282;28;20030;-58
2021/05/29 09:37:19;;;;;;;5.53;2.70;;;;;;;;;;4987234;28;20045;-58
2021/05/29 09:39:51;;;;;;;4.07;2.30;;;;;;;;;;5001884;28;20037;-58
2021/05/29 09:42:18;;;;;;;3.50;1.85;;;;;;;;;;4986708;28;20038;-58
2021/05/29 09:44:44;;;;;;;2.47;2.28;;;;;;;;;;4952219;28;752785;-58
2021/05/29 09:47:19;;;;;;;3.90;2.40;;;;;;;;;;4964457;28;20085;-57
2021/05/29 09:49:56;;;;;;;2.45;2.20;;;;;;;;;;5000620;28;20041;-57
2021/05/29 09:52:32;;;;;;;1.45;1.35;;;;;;;;;;4983675;28;20038;-57
2021/05/29 09:55:01;;;;;;;3.35;2.30;;;;;;;;;;5017928;28;20036;-58
2021/05/29 09:57:28;;;;;;;3.15;2.22;;;;;;;;;;4982743;28;20656;-59
2021/05/29 09:59:54;;;;;;;159.90;118.50;;;;;;;;;;5000864;28;20056;-57
2021/05/29 10:02:21;;;;;;;28.05;21.50;;;;;;;;;;4980121;28;20026;-59
2021/05/29 10:04:53;;;;;;;36.17;29.58;;;;;;;;;;4983576;28;20037;-60
2021/05/29 10:07:19;;;;;;;6.38;5.78;;;;;;;;;;5009959;28;20097;-59
2021/05/29 10:09:46;;;;;;;5.82;4.57;;;;;;;;;;4984435;28;20092;-58
2021/05/29 10:12:12;;;;;;;4.90;4.40;;;;;;;;;;4985045;28;20037;-58
2021/05/29 10:14:38;;;;;;;3.30;2.15;;;;;;;;;;4986167;28;20026;-58
2021/05/29 10:17:06;;;;;;;2.88;2.50;;;;;;;;;;5002077;28;20042;-58
2021/05/29 10:19:33;;;;;;;4.07;3.20;;;;;;;;;;4985037;28;20434;-58
2021/05/29 10:22:10;;;;;;;3.35;2.55;;;;;;;;;;4984239;28;20037;-58
2021/05/29 10:24:38;;;;;;;3.83;1.70;;;;;;;;;;5016383;28;20584;-58
2021/05/29 10:27:24;;;;;;;1.98;1.77;;;;;;;;;;4982163;28;20035;-58
2021/05/29 10:29:59;;;;;;;3.70;2.30;;;;;;;;;;4984723;28;21443;-58
2021/05/29 10:32:26;;;;;;;6.95;2.50;;;;;;;;;;4984417;28;20046;-59
2021/05/29 10:35:06;;;;;;;3.15;1.90;;;;;;;;;;4985979;28;20199;-58
2021/05/29 10:37:43;;;;;;;2.10;1.77;;;;;;;;;;4999873;28;20062;-60
2021/05/29 10:40:35;;;;;;;2.03;1.52;;;;;;;;;;5000805;28;20097;-58
2021/05/29 10:43:06;;;;;;;2.17;1.55;;;;;;;;;;5015878;28;20637;-59
2021/05/29 10:45:32;;;;;;;3.78;1.60;;;;;;;;;;4981410;28;20031;-59
2021/05/29 10:48:05;;;;;;;3.70;1.95;;;;;;;;;;5016299;28;20509;-59
2021/05/29 10:51:06;;;;;;;3.55;2.00;;;;;;;;;;4984320;28;20413;-59
2021/05/29 10:53:43;;;;;;;2.15;1.95;;;;;;;;;;4981785;28;20101;-58
2021/05/29 10:56:21;;;;;;;2.30;1.77;;;;;;;;;;4983341;28;20127;-58
2021/05/29 10:59:12;;;;;;;1.80;1.50;;;;;;;;;;4987598;28;20057;-58
2021/05/29 11:01:40;;;;;;;5.35;1.85;;;;;;;;;;4987504;28;20523;-58
2021/05/29 11:04:12;;;;;;;2.63;1.60;;;;;;;;;;4988023;28;20034;-58
2021/05/29 11:06:41;;;;;;;1.70;1.60;;;;;;;;;;4988440;28;20140;-58
2021/05/29 11:09:06;;;;;;;;;;;;;;;;;;4972356;28;20034;-58
2021/05/29 11:14:30;;;;;;;2.35;1.60;;;;;;;;;;4987626;28;20041;-58
2021/05/29 11:16:58;;;;;;;11.32;4.18;;;;;;;;;;4972851;28;20085;-58
2021/05/29 11:19:33;;;;;;;6.03;2.65;;;;;;;;;;4986472;28;20030;-58
2021/05/29 11:22:09;;;;;;;2.80;1.67;;;;;;;;;;5018333;28;20022;-61
2021/05/29 11:24:39;;;;;;;8.68;3.60;;;;;;;;;;5002560;28;20579;-58
2021/05/29 11:27:06;;;;;;;2.47;1.90;;;;;;;;;;4984872;28;20461;-58
2021/05/29 11:29:52;;;;;;;3.33;1.80;;;;;;;;;;4988950;28;20029;-58
2021/05/29 11:32:42;;;;;;;2.95;1.70;;;;;;;;;;4988259;28;20485;-59
2021/05/29 11:35:17;;;;;;;1.60;1.50;;;;;;;;;;4987646;28;20397;-58
2021/05/29 11:37:54;;;;;;;2.50;1.60;;;;;;;;;;4984586;28;20030;-58
2021/05/29 11:40:19;;;;;;;1.40;1.30;;;;;;;;;;4988294;28;20045;-59
2021/05/29 11:42:49;;;;;;;2.45;1.30;;;;;;;;;;5016583;28;20034;-58
2021/05/29 11:45:18;;;;;;;3.83;1.60;;;;;;;;;;4984387;28;20486;-58
2021/05/29 11:47:44;;;;;;;1.73;1.40;;;;;;;;;;4982767;28;20065;-59
2021/05/29 11:50:16;;;;;;;3.70;1.63;;;;;;;;;;4989058;28;20500;-58
2021/05/29 11:52:46;;;;;;;8.00;2.55;;;;;;;;;;4985078;28;20393;-58
2021/05/29 11:55:18;;;;;;;3.67;2.10;;;;;;;;;;4986378;28;20088;-58
2021/05/29 11:58:01;;;;;;;2.72;2.30;;;;;;;;;;4987430;28;20075;-59
2021/05/29 12:00:29;;;;;;;3.75;1.88;;;;;;;;;;4986498;28;20076;-60
2021/05/29 12:02:54;;;;;;;6.20;1.73;;;;;;;;;;4988035;28;20042;-60
2021/05/29 12:05:21;;;;;;;1.88;1.58;;;;;;;;;;5002901;28;20552;-60
2021/05/29 12:08:04;;;;;;;2.88;2.13;;;;;;;;;;4986887;28;20096;-60
2021/05/29 12:10:47;;;;;;;2.13;1.35;;;;;;;;;;4986185;28;20088;-60
2021/05/29 12:13:30;;;;;;;5.63;2.00;;;;;;;;;;4986914;28;20026;-63
2021/05/29 12:16:02;;;;;;;2.85;1.30;;;;;;;;;;4981019;28;20028;-60
2021/05/29 12:18:40;;;;;;;3.13;1.67;;;;;;;;;;4982561;28;20517;-60
2021/05/29 12:21:07;;;;;;;2.35;1.63;;;;;;;;;;4986162;28;20035;-59
2021/05/29 12:24:08;;;;;;;2.47;1.80;;;;;;;;;;5003563;28;20038;-59
2021/05/29 12:26:34;;;;;;;1.98;1.00;;;;;;;;;;5000672;28;20034;-60
2021/05/29 12:29:00;;;;;;;5.20;1.10;;;;;;;;;;4986601;28;20054;-61
2021/05/29 12:31:51;;;;;;;2.97;1.50;;;;;;;;;;4980821;28;20026;-60
2021/05/29 12:34:17;;;;;;;3.33;1.55;;;;;;;;;;4987574;28;20061;-60
2021/05/29 12:37:08;;;;;;;1.60;1.50;;;;;;;;;;4987077;28;20128;-61
2021/05/29 12:40:03;;;;;;;1.85;1.75;;;;;;;;;;4985759;28;20022;-59
2021/05/29 12:42:30;;;;;;;2.95;1.50;;;;;;;;;;5015460;28;20030;-60
2021/05/29 12:45:03;;;;;;;1.60;1.50;;;;;;;;;;4984453;28;20039;-61
2021/05/29 12:47:31;;;;;;;2.17;1.45;;;;;;;;;;4986005;28;20034;-59
2021/05/29 12:49:58;;;;;;;1.90;1.10;;;;;;;;;;4984881;28;20026;-59
2021/05/29 12:52:33;;;;;;;1.35;1.25;;;;;;;;;;4986141;28;20030;-61
2021/05/29 12:55:02;;;;;;;1.92;1.00;;;;;;;;;;4984636;28;20041;-60
2021/05/29 12:57:38;;;;;;;;;;;;;;;;;;4998190;28;20030;-61
2021/05/29 13:09:22;;;;;;;0.90;0.90;;;;;;;;;;4982306;28;20455;-60
2021/05/29 13:11:49;;;;;;;1.58;1.48;;;;;;;;;;4986292;28;20038;-61
2021/05/29 13:14:18;;;;;;;2.38;1.02;;;;;;;;;;4984549;28;20023;-60
2021/05/29 13:16:53;;;;;;;1.65;1.55;;;;;;;;;;4982846;28;20050;-61
2021/05/29 13:19:22;;;;;;;2.97;1.60;;;;;;;;;;4983801;28;20030;-61
2021/05/29 13:22:03;;;;;;;2.15;1.38;;;;;;;;;;4981293;28;20409;-60
2021/05/29 13:24:40;;;;;;;2.50;1.00;;;;;;;;;;5016273;28;20113;-61
2021/05/29 13:27:07;;;;;;;4.00;1.00;;;;;;;;;;4983225;28;20026;-59
2021/05/29 13:29:33;;;;;;;2.63;1.20;;;;;;;;;;4985568;28;20039;-60
2021/05/29 13:31:59;;;;;;;1.45;1.33;;;;;;;;;;4985769;28;20022;-59
2021/05/29 13:34:28;;;;;;;1.60;1.50;;;;;;;;;;4988135;28;20023;-60
2021/05/29 13:36:54;;;;;;;3.45;1.40;;;;;;;;;;4984242;28;20157;-60
2021/05/29 13:39:20;;;;;;;3.28;1.48;;;;;;;;;;4986777;28;20101;-58
2021/05/29 13:41:46;;;;;;;2.08;1.38;;;;;;;;;;4985439;28;20488;-60
2021/05/29 13:44:13;;;;;;;3.25;1.30;;;;;;;;;;4984639;28;20022;-60
2021/05/29 13:46:38;;;;;;;1.40;1.30;;;;;;;;;;4983870;28;20229;-61
2021/05/29 13:49:05;;;;;;;1.75;1.10;;;;;;;;;;4970281;28;20157;-60
2021/05/29 13:51:32;;;;;;;1.45;0.90;;;;;;;;;;4984806;28;20118;-61
2021/05/29 13:54:03;;;;;;;1.58;1.27;;;;;;;;;;4984488;28;20101;-63
2021/05/29 13:56:30;;;;;;;2.38;1.10;;;;;;;;;;4982935;28;20040;-64
2021/05/29 13:58:56;;;;;;;1.38;0.90;;;;;;;;;;4999211;28;20120;-61
2021/05/29 14:01:22;;;;;;;1.05;0.80;;;;;;;;;;4983209;28;20089;-61
2021/05/29 14:03:48;;;;;;;1.27;1.10;;;;;;;;;;5014380;28;20038;-62
2021/05/29 14:06:15;;;;;;;1.80;0.90;;;;;;;;;;4984898;28;20133;-60
2021/05/29 14:08:41;;;;;;;1.05;0.60;;;;;;;;;;4983412;28;20129;-60
2021/05/29 14:11:09;;;;;;;1.40;0.93;;;;;;;;;;4985956;28;20029;-61
2021/05/29 14:13:35;;;;;;;3.10;0.63;;;;;;;;;;4985726;28;20129;-61
2021/05/29 14:16:00;;;;;;;2.15;1.00;;;;;;;;;;4982857;28;20310;-61
2021/05/29 14:18:26;;;;;;;1.20;0.70;;;;;;;;;;4981725;28;20144;-61
2021/05/29 14:20:53;;;;;;;0.90;0.65;;;;;;;;;;4985806;28;20066;-61
2021/05/29 14:23:19;;;;;;;0.85;0.77;;;;;;;;;;4982070;28;20393;-60
2021/05/29 14:25:44;;;;;;;0.60;0.60;;;;;;;;;;4984876;28;20030;-61
2021/05/29 14:28:10;;;;;;;1.60;0.70;;;;;;;;;;4984115;28;20167;-61
2021/05/29 14:30:36;;;;;;;1.10;1.10;;;;;;;;;;5016361;28;20151;-60
2021/05/29 14:33:02;;;;;;;1.00;0.88;;;;;;;;;;4987175;28;20062;-60
2021/05/29 14:35:28;;;;;;;2.88;1.10;;;;;;;;;;4987685;28;20022;-59
2021/05/29 14:37:56;;;;;;;3.30;0.80;;;;;;;;;;4983860;28;20037;-59
2021/05/29 14:40:22;;;;;;;2.47;0.73;;;;;;;;;;5019150;28;20046;-59
2021/05/29 14:42:48;;;;;;;1.15;1.10;;;;;;;;;;4988455;28;20034;-59
2021/05/29 14:45:15;;;;;;;1.13;0.77;;;;;;;;;;4988937;28;20563;-59
2021/05/29 14:47:40;;;;;;;2.05;0.70;;;;;;;;;;4985497;28;20088;-56
2021/05/29 14:50:06;;;;;;;0.63;0.63;;;;;;;;;;4991021;28;20464;-59
2021/05/29 14:52:32;;;;;;;3.08;0.70;;;;;;;;;;4986036;28;20037;-58
2021/05/29 14:54:58;;;;;;;1.30;0.68;;;;;;;;;;4986426;28;20138;-59
2021/05/29 14:57:27;;;;;;;1.08;0.80;;;;;;;;;;5000041;28;20034;-59
2021/05/29 14:59:52;;;;;;;0.73;0.73;;;;;;;;;;4988400;28;20252;-59
2021/05/29 15:02:18;;;;;;;1.05;0.60;;;;;;;;;;4987809;28;20359;-61
2021/05/29 15:04:53;;;;;;;2.15;1.35;;;;;;;;;;5020507;28;20073;-60
2021/05/29 15:07:18;;;;;;;1.80;0.80;;;;;;;;;;5014277;28;20034;-59
2021/05/29 15:09:44;;;;;;;1.10;0.82;;;;;;;;;;4988759;28;20030;-59
2021/05/29 15:12:10;;;;;;;1.42;0.90;;;;;;;;;;4972609;28;20121;-59
2021/05/29 15:14:35;;;;;;;3.80;0.90;;;;;;;;;;4987994;28;20049;-59